Hunter, ND

9:34 PM CDT on May 24, 2015 (GMT -0500)
PFS Hunter | | Change Station
CLOSE
Current Station
Personal Weather Station
Location: Hunter, ND
Elevation: 974 ft
Nearby Weather Stations

Elev 974 ft 47.15 °N, 97.21 °W | Updated 3 seconds ago

Overcast
Overcast
65.1 °F
Feels Like 65.1 °F
N
3.1
Wind Variable Wind from ENE
Gusts 4.0 mph

Today
High -- | Low -- °F
--% Chance of Precip.
Yesterday
High -- | Low -- °F
Precip. -- in
5:43 AM 9:09 PM
Waxing Crescent, 44% visible
Pressure 29.88 in
Visibility 10.0 miles
Clouds Mostly Cloudy 6500 ft
Mostly Cloudy 10000 ft
Overcast 12000 ft
Dew Point 52 °F
Humidity 62%
Rainfall 0.00 in
Snow Depth Not available.
UV 0 out of 12
Pollen 7.00 out of 12
Air Quality Not available.
Flu Activity Sporadic
METAR KFAR 250153Z 00000KT 10SM BKN065 BKN100 OVC120 19/12 A2988 RMK AO2 SLP116 T01890122

More Conditions Fewer Conditions

Pressure 29.88 in
Visibility 10.0 miles
Clouds Mostly Cloudy 6500 ft
Mostly Cloudy 10000 ft
Overcast 12000 ft
Dew Point 52 °F
Humidity 62%
Rainfall 0.00 in
Snow Depth Not available.
UV 0 out of 12
Pollen 7.00 out of 12
Air Quality Not available.
Flu Activity Sporadic
METAR KFAR 250153Z 00000KT 10SM BKN065 BKN100 OVC120 19/12 A2988 RMK AO2 SLP116 T01890122

More Conditions Fewer Conditions

10-Day Weather Forecast

Almanac

Astronomy

May. 24, 2015 Rise Set
Actual Time
Civil Twilight
Nautical Twilight
Astronomical Twilight
Moon
Length of Visible Light
Length of Day
Tomorrow will be .
, % of the Moon is Illuminated

Today's Extremes

State Highs State Lows

Community

WunderPhotos

Upload Photos

1,823,936 photos uploaded!

WunderBlogs® & News

Nearby

Air Quality

  Air Quality AQ Index Pollutant
Not available.

Snow Depth

Station Depth Elevation

Earthquake Activity

City Distance Mag. Time & Date
Minimum magnitude displayed is 2.5.

Coastal Water Temperatures

Place Temperature

Stations

Nearby Weather Stations

Station Location Temp. Windchill Dew Point Humidity Wind Precip. Elev Updated Type